createdAt,value
2023-03-04T00:01:32.844Z,17.43
2023-03-04T00:04:00.832Z,17.40
2023-03-04T00:06:28.904Z,17.33
2023-03-04T00:08:56.958Z,17.80
2023-03-04T00:11:24.953Z,16.97
2023-03-04T00:13:53.564Z,17.37
2023-03-04T00:16:21.547Z,16.27
2023-03-04T00:18:50.975Z,16.27
2023-03-04T00:21:18.866Z,18.30
2023-03-04T00:23:46.872Z,15.73
2023-03-04T00:26:14.817Z,17.70
2023-03-04T00:28:42.759Z,16.23
2023-03-04T00:31:11.469Z,17.47
2023-03-04T00:33:40.324Z,15.87
2023-03-04T00:36:10.241Z,16.50
2023-03-04T00:38:38.302Z,17.77
2023-03-04T00:41:06.450Z,16.13
2023-03-04T00:43:34.431Z,16.27
2023-03-04T00:46:02.546Z,16.10
2023-03-04T00:48:30.466Z,15.37
2023-03-04T00:50:58.701Z,16.37
2023-03-04T00:53:28.031Z,15.73
2023-03-04T00:55:55.918Z,14.83
2023-03-04T00:58:23.872Z,15.83
2023-03-04T01:00:51.916Z,15.50
2023-03-04T01:03:19.973Z,18.63
2023-03-04T01:05:47.878Z,16.70
2023-03-04T01:08:15.800Z,16.87
2023-03-04T01:10:45.434Z,16.13
2023-03-04T01:13:13.401Z,15.30
2023-03-04T01:15:41.436Z,17.20
2023-03-04T01:18:09.404Z,16.13
2023-03-04T01:20:37.343Z,16.87
2023-03-04T01:23:05.326Z,16.97
2023-03-04T01:25:33.219Z,16.80
2023-03-04T01:28:02.620Z,15.83
2023-03-04T01:30:30.640Z,17.30
2023-03-04T01:32:59.189Z,15.63
2023-03-04T01:35:27.271Z,16.00
2023-03-04T01:37:55.276Z,15.30
2023-03-04T01:40:23.428Z,17.13
2023-03-04T01:42:51.930Z,14.97
2023-03-04T01:45:21.796Z,17.33
2023-03-04T01:47:51.218Z,16.67
2023-03-04T01:50:23.793Z,17.27
2023-03-04T01:52:52.028Z,16.50
2023-03-04T01:55:21.588Z,17.97
2023-03-04T01:57:51.300Z,15.70
2023-03-04T02:00:32.128Z,15.33
2023-03-04T02:03:02.290Z,15.90
2023-03-04T02:05:31.791Z,15.50
2023-03-04T02:08:01.765Z,17.37
2023-03-04T02:10:30.419Z,16.77
2023-03-04T02:12:58.369Z,17.33
2023-03-04T02:15:26.841Z,16.13
2023-03-04T02:17:56.369Z,17.50
2023-03-04T02:20:37.149Z,16.10
2023-03-04T02:23:10.635Z,15.43
2023-03-04T02:25:49.949Z,17.27
2023-03-04T02:28:19.453Z,16.70
2023-03-04T02:30:47.907Z,16.27
2023-03-04T02:33:18.596Z,17.03
2023-03-04T02:35:47.641Z,16.50
2023-03-04T02:38:15.681Z,16.63
2023-03-04T02:40:47.612Z,18.30
2023-03-04T02:43:16.075Z,16.60
2023-03-04T02:45:47.376Z,17.90
2023-03-04T02:48:19.138Z,15.87
2023-03-04T02:50:49.736Z,16.83
2023-03-04T02:53:18.078Z,18.23
2023-03-04T02:55:46.310Z,16.60
2023-03-04T02:58:14.862Z,16.23
2023-03-04T03:00:43.257Z,17.10
2023-03-04T03:03:12.655Z,16.90
2023-03-04T03:05:41.126Z,15.70
2023-03-04T03:08:09.535Z,17.00
2023-03-04T03:10:37.620Z,15.67
2023-03-04T03:13:05.588Z,23.10
2023-03-04T03:15:33.578Z,16.97
2023-03-04T03:18:01.524Z,16.10
2023-03-04T03:20:30.791Z,17.90
2023-03-04T03:22:58.666Z,97.93
2023-03-04T03:25:26.577Z,21.50
2023-03-04T03:27:54.532Z,17.40
2023-03-04T03:30:22.609Z,16.87
2023-03-04T03:32:50.721Z,17.40
2023-03-04T03:35:19.327Z,16.70
2023-03-04T03:37:49.929Z,17.00
2023-03-04T03:40:18.073Z,17.83
2023-03-04T03:42:47.073Z,16.20
2023-03-04T03:45:15.175Z,18.30
2023-03-04T03:47:43.083Z,17.27
2023-03-04T03:50:12.067Z,15.80
2023-03-04T03:52:40.028Z,16.43
2023-03-04T03:55:10.352Z,16.43
2023-03-04T03:57:38.320Z,16.50
2023-03-04T04:00:07.726Z,15.00
2023-03-04T04:02:35.866Z,14.13
2023-03-04T04:05:03.899Z,14.60
2023-03-04T04:07:31.789Z,16.70
2023-03-04T04:09:59.717Z,16.73
2023-03-04T04:12:29.168Z,14.90
2023-03-04T04:14:57.178Z,15.10
2023-03-04T04:17:25.188Z,16.47
2023-03-04T04:19:53.352Z,16.20
2023-03-04T04:22:22.074Z,15.07
2023-03-04T04:24:50.131Z,14.83
2023-03-04T04:27:18.304Z,14.63
2023-03-04T04:29:47.650Z,16.20
2023-03-04T04:32:15.632Z,15.93
2023-03-04T04:34:43.530Z,14.50
2023-03-04T04:37:11.413Z,13.60
2023-03-04T04:39:39.717Z,15.60
2023-03-04T04:42:07.653Z,13.70
2023-03-04T04:44:36.246Z,13.90
2023-03-04T04:47:06.298Z,12.63
2023-03-04T04:49:34.312Z,12.60
2023-03-04T04:52:02.595Z,14.33
2023-03-04T04:54:30.580Z,13.80
2023-03-04T04:56:58.613Z,13.57
2023-03-04T04:59:26.593Z,12.57
2023-03-04T05:01:54.776Z,14.33
2023-03-04T05:04:24.092Z,14.40
2023-03-04T05:06:52.070Z,15.60
2023-03-04T05:09:20.869Z,15.77
2023-03-04T05:11:48.804Z,14.60
2023-03-04T05:14:16.755Z,17.73
2023-03-04T05:16:44.666Z,15.47
2023-03-04T05:19:12.645Z,17.17
2023-03-04T05:21:42.065Z,16.77
2023-03-04T05:24:10.233Z,16.20
2023-03-04T05:26:38.271Z,16.87
2023-03-04T05:29:06.307Z,17.00
2023-03-04T05:31:34.379Z,16.83
2023-03-04T05:34:02.334Z,16.40
2023-03-04T05:36:30.236Z,16.50
2023-03-04T05:38:59.893Z,17.17
2023-03-04T05:41:27.858Z,16.80
2023-03-04T05:43:56.490Z,17.67
2023-03-04T05:46:26.113Z,18.93
2023-03-04T05:48:54.654Z,19.70
2023-03-04T05:51:23.180Z,20.00
2023-03-04T05:53:51.181Z,20.60
2023-03-04T05:56:21.883Z,22.03
2023-03-04T05:58:50.016Z,20.50
2023-03-04T06:01:18.508Z,21.23
2023-03-04T06:03:48.473Z,21.50
2023-03-04T06:06:16.509Z,22.03
2023-03-04T06:08:44.468Z,23.10
2023-03-04T06:11:12.385Z,25.30
2023-03-04T06:13:41.765Z,23.27
2023-03-04T06:16:10.946Z,23.93
2023-03-04T06:18:39.085Z,21.90
2023-03-04T06:21:07.252Z,21.67
2023-03-04T06:23:35.285Z,22.60
2023-03-04T06:26:03.361Z,22.70
2023-03-04T06:28:32.404Z,21.67
2023-03-04T06:31:01.898Z,22.13
2023-03-04T06:33:29.912Z,24.90
2023-03-04T06:35:58.597Z,23.60
2023-03-04T06:38:27.314Z,23.13
2023-03-04T06:40:57.477Z,22.10
2023-03-04T06:43:25.790Z,19.73
2023-03-04T06:45:55.177Z,21.00
2023-03-04T06:48:24.697Z,20.10
2023-03-04T06:50:52.772Z,24.77
2023-03-04T06:53:20.811Z,21.43
2023-03-04T06:55:49.542Z,19.63
2023-03-04T06:58:18.141Z,20.33
2023-03-04T07:00:46.431Z,22.43
2023-03-04T07:03:14.777Z,22.73
2023-03-04T07:05:45.349Z,22.23
2023-03-04T07:08:13.427Z,20.57
2023-03-04T07:10:41.510Z,20.60
2023-03-04T07:13:09.517Z,21.27
2023-03-04T07:15:38.772Z,21.97
2023-03-04T07:18:06.824Z,23.53
2023-03-04T07:20:34.871Z,20.17
2023-03-04T07:23:04.177Z,19.37
2023-03-04T07:25:32.235Z,19.20
2023-03-04T07:28:00.220Z,20.63
2023-03-04T07:30:28.239Z,20.10
2023-03-04T07:32:58.914Z,20.40
2023-03-04T07:35:27.148Z,18.93
2023-03-04T07:37:55.126Z,19.90
2023-03-04T07:40:24.960Z,20.67
2023-03-04T07:42:53.512Z,18.20
2023-03-04T07:45:21.812Z,17.60
2023-03-04T07:47:49.904Z,18.63
2023-03-04T07:50:18.435Z,17.40
2023-03-04T07:52:48.577Z,15.93
2023-03-04T07:55:17.600Z,14.23
2023-03-04T07:57:48.612Z,15.67
2023-03-04T08:00:19.337Z,14.50
2023-03-04T08:02:47.477Z,12.53
2023-03-04T08:05:15.573Z,12.70
2023-03-04T08:07:43.459Z,12.73
2023-03-04T08:10:12.553Z,10.90
2023-03-04T08:12:40.595Z,17.60
2023-03-04T08:15:12.186Z,10.60
2023-03-04T08:17:40.242Z,12.37
2023-03-04T08:20:09.614Z,9.60
2023-03-04T08:22:37.536Z,10.23
2023-03-04T08:25:06.294Z,10.40
2023-03-04T08:27:34.408Z,9.57
2023-03-04T08:30:02.349Z,11.60
2023-03-04T08:32:31.760Z,11.20
2023-03-04T08:35:02.295Z,9.60
2023-03-04T08:37:31.033Z,10.30
2023-03-04T08:39:59.013Z,9.50
2023-03-04T08:42:27.084Z,10.63
2023-03-04T08:44:55.057Z,10.40
2023-03-04T08:47:22.988Z,10.03
2023-03-04T08:49:52.250Z,10.90
2023-03-04T08:52:20.229Z,10.53
2023-03-04T08:54:48.927Z,12.03
2023-03-04T08:57:16.862Z,10.50
2023-03-04T08:59:44.830Z,10.10
2023-03-04T09:02:12.765Z,10.20
2023-03-04T09:04:40.823Z,11.40
2023-03-04T09:07:10.122Z,9.97
2023-03-04T09:09:38.145Z,10.03
2023-03-04T09:12:06.502Z,9.50
2023-03-04T09:14:35.887Z,9.20
2023-03-04T09:17:04.415Z,9.40
2023-03-04T09:19:32.443Z,9.37
2023-03-04T09:22:00.402Z,8.83
2023-03-04T09:24:29.656Z,8.83
2023-03-04T09:26:57.796Z,8.67
2023-03-04T09:29:25.824Z,9.10
2023-03-04T09:31:53.701Z,10.87
2023-03-04T09:34:21.675Z,9.70
2023-03-04T09:36:49.622Z,9.03
2023-03-04T09:39:17.531Z,10.90
2023-03-04T09:41:49.714Z,9.97
2023-03-04T09:44:24.158Z,10.20
2023-03-04T09:46:52.847Z,9.73
2023-03-04T09:49:23.169Z,9.60
2023-03-04T09:52:03.887Z,10.60
2023-03-04T09:54:55.937Z,10.23
2023-03-04T09:57:31.232Z,11.20
2023-03-04T10:00:08.386Z,10.53
2023-03-04T10:02:45.888Z,9.50
2023-03-04T10:05:18.810Z,8.30
2023-03-04T10:07:51.593Z,8.90
2023-03-04T10:10:26.524Z,11.37
2023-03-04T10:12:56.835Z,10.30
2023-03-04T10:15:32.776Z,9.87
2023-03-04T10:18:09.140Z,9.90
2023-03-04T10:20:50.416Z,8.77
2023-03-04T10:23:23.345Z,9.70
2023-03-04T10:25:54.216Z,10.33
2023-03-04T10:28:26.546Z,9.80
2023-03-04T10:31:00.846Z,10.03
2023-03-04T10:33:31.513Z,9.60
2023-03-04T10:36:03.729Z,10.60
2023-03-04T10:38:33.580Z,11.80
2023-03-04T10:41:01.962Z,10.57
2023-03-04T10:43:31.446Z,9.87
2023-03-04T10:46:01.139Z,10.27
2023-03-04T10:48:30.954Z,10.90
2023-03-04T10:51:13.534Z,10.43
2023-03-04T10:53:43.959Z,10.80
2023-03-04T10:56:32.053Z,11.00
2023-03-04T10:59:40.462Z,10.80
2023-03-04T11:02:23.976Z,10.67
2023-03-04T11:04:56.099Z,10.77
2023-03-04T11:07:26.048Z,11.40
2023-03-04T11:09:56.055Z,10.53
2023-03-04T11:12:34.352Z,11.33
2023-03-04T11:15:05.030Z,12.37
2023-03-04T11:17:44.500Z,11.27
2023-03-04T11:20:26.191Z,12.93
2023-03-04T11:22:56.703Z,11.73
2023-03-04T11:25:28.394Z,12.90
2023-03-04T11:28:01.297Z,11.63
2023-03-04T11:30:42.355Z,11.87
2023-03-04T11:33:27.617Z,10.13
2023-03-04T11:36:05.022Z,11.37
2023-03-04T11:38:37.556Z,12.20
2023-03-04T11:41:10.732Z,10.77
2023-03-04T11:43:40.118Z,11.90
2023-03-04T11:46:43.756Z,11.73
2023-03-04T11:49:49.890Z,11.77
2023-03-04T11:52:28.021Z,10.10
2023-03-04T11:55:17.459Z,12.07
2023-03-04T11:57:56.050Z,11.07
2023-03-04T12:00:35.760Z,12.23
2023-03-04T12:03:35.910Z,10.50
2023-03-04T12:06:11.827Z,10.77
2023-03-04T12:09:01.565Z,11.60
2023-03-04T12:11:40.465Z,10.90
2023-03-04T12:14:24.877Z,9.87
2023-03-04T12:17:38.502Z,10.20
2023-03-04T12:20:29.043Z,9.83
2023-03-04T12:23:05.417Z,9.07
2023-03-04T12:25:40.879Z,9.67
2023-03-04T12:28:22.170Z,10.63
2023-03-04T12:31:05.375Z,10.63
2023-03-04T12:33:46.172Z,9.60
2023-03-04T12:36:24.585Z,9.03
2023-03-04T12:39:01.679Z,10.10
2023-03-04T12:41:47.774Z,9.50
2023-03-04T12:44:18.164Z,8.67
2023-03-04T12:47:06.913Z,7.43
2023-03-04T12:49:56.565Z,8.73
2023-03-04T12:52:36.234Z,7.73
2023-03-04T12:55:11.968Z,7.83
2023-03-04T12:57:40.732Z,7.80
2023-03-04T13:00:21.460Z,7.40
2023-03-04T13:02:59.277Z,6.67
2023-03-04T13:05:40.290Z,6.70
2023-03-04T13:08:16.981Z,7.40
2023-03-04T13:10:46.260Z,7.07
2023-03-04T13:13:36.217Z,7.00
2023-03-04T13:16:06.675Z,7.80
2023-03-04T13:18:36.099Z,7.33
2023-03-04T13:21:19.011Z,7.40
2023-03-04T13:23:47.004Z,6.57
2023-03-04T13:26:23.577Z,6.60
2023-03-04T13:29:09.789Z,7.27
2023-03-04T13:31:59.424Z,7.30
2023-03-04T13:34:46.790Z,8.00
2023-03-04T13:37:35.432Z,8.00
2023-03-04T13:40:40.318Z,7.23
2023-03-04T13:43:39.596Z,7.50
2023-03-04T13:46:30.122Z,7.70
2023-03-04T13:49:03.790Z,8.47
2023-03-04T13:51:33.442Z,7.70
2023-03-04T13:54:16.992Z,7.63
2023-03-04T13:56:46.741Z,8.63
2023-03-04T13:59:29.599Z,7.87
2023-03-04T14:02:14.891Z,8.83
2023-03-04T14:04:44.257Z,8.97
2023-03-04T14:07:21.687Z,8.77
2023-03-04T14:09:59.039Z,8.63
2023-03-04T14:12:28.542Z,8.27
2023-03-04T14:15:00.320Z,8.23
2023-03-04T14:17:31.634Z,9.13
2023-03-04T14:20:00.947Z,9.97
2023-03-04T14:22:31.447Z,10.47
2023-03-04T14:25:04.894Z,8.83
2023-03-04T14:27:36.184Z,9.80
2023-03-04T14:30:08.817Z,9.63
2023-03-04T14:32:36.885Z,9.60
2023-03-04T14:35:08.059Z,9.53
2023-03-04T14:37:44.661Z,10.50
2023-03-04T14:40:21.823Z,10.93
2023-03-04T14:42:53.453Z,10.13
2023-03-04T14:45:24.591Z,11.73
2023-03-04T14:47:56.696Z,11.80
2023-03-04T14:50:24.790Z,10.23
2023-03-04T14:53:11.887Z,11.83
2023-03-04T14:55:39.797Z,10.47
2023-03-04T14:58:10.039Z,11.30
2023-03-04T15:00:41.200Z,12.43
2023-03-04T15:03:22.049Z,10.80
2023-03-04T15:05:52.744Z,10.90
2023-03-04T15:08:24.721Z,11.47
2023-03-04T15:10:56.696Z,11.10
2023-03-04T15:13:40.158Z,11.27
2023-03-04T15:16:11.293Z,10.93
2023-03-04T15:18:39.744Z,11.07
2023-03-04T15:21:31.595Z,11.33
2023-03-04T15:23:59.856Z,12.37
2023-03-04T15:26:28.068Z,10.53
2023-03-04T15:28:56.206Z,11.03
2023-03-04T15:31:26.973Z,12.63
2023-03-04T15:33:54.935Z,11.70
2023-03-04T15:36:24.493Z,13.30
2023-03-04T15:38:54.485Z,12.13
2023-03-04T15:41:25.086Z,12.20
2023-03-04T15:43:54.731Z,11.73
2023-03-04T15:46:23.172Z,12.03
2023-03-04T15:48:52.949Z,13.10
2023-03-04T15:51:22.756Z,12.73
2023-03-04T15:53:53.913Z,12.20
2023-03-04T15:56:25.293Z,12.57
2023-03-04T15:58:56.576Z,11.67
2023-03-04T16:01:25.571Z,10.90
2023-03-04T16:03:55.172Z,12.67
2023-03-04T16:06:25.297Z,11.30
2023-03-04T16:08:54.005Z,11.97
2023-03-04T16:11:24.261Z,11.83
2023-03-04T16:13:52.740Z,10.83
2023-03-04T16:16:21.222Z,11.23
2023-03-04T16:18:49.747Z,12.20
2023-03-04T16:21:23.185Z,11.87
2023-03-04T16:23:53.036Z,11.70
2023-03-04T16:26:23.191Z,9.73
2023-03-04T16:28:51.450Z,10.87
2023-03-04T16:31:20.577Z,11.00
2023-03-04T16:33:50.314Z,12.57
2023-03-04T16:36:23.307Z,12.93
2023-03-04T16:38:52.527Z,12.13
2023-03-04T16:41:25.975Z,13.23
2023-03-04T16:43:56.003Z,12.80
2023-03-04T16:46:24.991Z,12.97
2023-03-04T16:48:53.172Z,11.40
2023-03-04T16:51:23.852Z,10.87
2023-03-04T16:53:56.168Z,10.57
2023-03-04T16:56:24.841Z,9.47
2023-03-04T16:58:54.075Z,10.87
2023-03-04T17:01:24.730Z,10.17
2023-03-04T17:03:53.433Z,9.27
2023-03-04T17:06:24.066Z,9.53
2023-03-04T17:08:52.611Z,9.70
2023-03-04T17:11:22.902Z,9.67
2023-03-04T17:13:51.530Z,10.07
2023-03-04T17:16:20.135Z,9.60
2023-03-04T17:18:48.300Z,11.53
2023-03-04T17:21:18.250Z,10.77
2023-03-04T17:23:47.545Z,8.50
2023-03-04T17:26:16.656Z,9.67
2023-03-04T17:28:44.603Z,8.87
2023-03-04T17:31:13.710Z,10.90
2023-03-04T17:33:43.698Z,10.00
2023-03-04T17:36:13.009Z,9.40
2023-03-04T17:38:41.275Z,9.90
2023-03-04T17:41:13.239Z,9.60
2023-03-04T17:43:44.334Z,9.30
2023-03-04T17:46:14.842Z,9.50
2023-03-04T17:48:43.558Z,10.10
2023-03-04T17:51:12.617Z,8.30
2023-03-04T17:53:40.865Z,9.10
2023-03-04T17:56:12.161Z,9.27
2023-03-04T17:58:40.728Z,7.83
2023-03-04T18:01:16.815Z,9.83
2023-03-04T18:03:44.796Z,8.23
2023-03-04T18:06:13.232Z,8.67
2023-03-04T18:08:41.402Z,7.90
2023-03-04T18:11:11.133Z,8.20
2023-03-04T18:13:39.470Z,7.80
2023-03-04T18:16:08.960Z,6.50
2023-03-04T18:18:37.634Z,6.87
2023-03-04T18:21:06.753Z,7.30
2023-03-04T18:23:35.680Z,8.13
2023-03-04T18:26:04.431Z,8.03
2023-03-04T18:28:33.815Z,8.10
2023-03-04T18:31:04.922Z,8.10
2023-03-04T18:33:34.026Z,7.60
2023-03-04T18:36:03.771Z,8.00
2023-03-04T18:38:31.881Z,7.57
2023-03-04T18:41:00.778Z,8.03
2023-03-04T18:43:29.003Z,8.00
2023-03-04T18:46:09.565Z,7.20
2023-03-04T18:48:44.484Z,7.47
2023-03-04T18:51:12.502Z,8.30
2023-03-04T18:53:40.806Z,8.00
2023-03-04T18:56:13.817Z,8.67
2023-03-04T18:58:44.828Z,8.47
2023-03-04T19:01:16.792Z,7.50
2023-03-04T19:03:45.877Z,8.40
2023-03-04T19:06:13.905Z,8.17
2023-03-04T19:08:42.006Z,8.03
2023-03-04T19:11:09.954Z,8.13
2023-03-04T19:13:37.992Z,8.37
2023-03-04T19:16:06.644Z,8.47
2023-03-04T19:18:36.031Z,8.10
2023-03-04T19:21:05.398Z,9.10
2023-03-04T19:23:33.675Z,8.10
2023-03-04T19:26:01.988Z,8.97
2023-03-04T19:28:29.989Z,8.73
2023-03-04T19:30:59.217Z,8.00
2023-03-04T19:33:27.420Z,8.30
2023-03-04T19:35:56.716Z,8.87
2023-03-04T19:38:24.710Z,8.00
2023-03-04T19:40:52.770Z,8.37
2023-03-04T19:43:20.715Z,8.33
2023-03-04T19:45:54.330Z,9.73
2023-03-04T19:48:22.800Z,9.43
2023-03-04T19:50:51.659Z,8.80
2023-03-04T19:53:20.990Z,8.93
2023-03-04T19:55:49.946Z,9.53
2023-03-04T19:58:18.148Z,8.97
2023-03-04T20:00:46.496Z,8.50
2023-03-04T20:03:14.962Z,8.33
2023-03-04T20:05:43.132Z,8.10
2023-03-04T20:08:11.132Z,7.03
2023-03-04T20:10:41.060Z,7.50
2023-03-04T20:13:10.216Z,7.63
2023-03-04T20:15:38.480Z,9.13
2023-03-04T20:18:06.681Z,8.07
2023-03-04T20:20:34.955Z,8.13
2023-03-04T20:23:02.878Z,7.93
2023-03-04T20:25:31.919Z,8.13
2023-03-04T20:28:01.241Z,7.67
2023-03-04T20:30:29.292Z,8.70
2023-03-04T20:32:57.294Z,7.57
2023-03-04T20:35:25.257Z,7.80
2023-03-04T20:37:53.285Z,7.23
2023-03-04T20:40:21.422Z,8.13
2023-03-04T20:42:49.390Z,8.27
2023-03-04T20:45:20.229Z,7.50
2023-03-04T20:47:48.674Z,6.77
2023-03-04T20:50:17.764Z,7.60
2023-03-04T20:52:45.974Z,7.10
2023-03-04T20:55:13.962Z,7.23
2023-03-04T20:57:41.911Z,8.10
2023-03-04T21:00:11.808Z,8.37
2023-03-04T21:02:41.284Z,7.57
2023-03-04T21:05:09.840Z,8.07
2023-03-04T21:07:37.813Z,7.10
2023-03-04T21:10:06.437Z,7.40
2023-03-04T21:12:34.484Z,8.03
2023-03-04T21:15:02.430Z,7.27
2023-03-04T21:17:30.378Z,7.27
2023-03-04T21:19:59.685Z,7.07
2023-03-04T21:22:27.872Z,8.00
2023-03-04T21:24:55.864Z,8.17
2023-03-04T21:27:24.137Z,6.20
2023-03-04T21:29:52.781Z,5.80
2023-03-04T21:32:25.497Z,7.10
2023-03-04T21:34:55.115Z,7.37
2023-03-04T21:37:25.958Z,6.53
2023-03-04T21:39:54.243Z,8.03
2023-03-04T21:42:22.160Z,6.40
2023-03-04T21:44:51.490Z,7.80
2023-03-04T21:47:19.896Z,7.20
2023-03-04T21:49:48.350Z,7.40
2023-03-04T21:52:16.462Z,8.17
2023-03-04T21:54:45.938Z,6.27
2023-03-04T21:57:14.330Z,7.30
2023-03-04T21:59:42.737Z,7.50
2023-03-04T22:02:16.189Z,6.53
2023-03-04T22:04:44.134Z,7.20
2023-03-04T22:07:12.230Z,6.77
2023-03-04T22:09:40.480Z,6.10
2023-03-04T22:12:09.993Z,7.13
2023-03-04T22:14:38.041Z,7.50
2023-03-04T22:17:06.252Z,6.87
2023-03-04T22:19:34.336Z,6.90
2023-03-04T22:22:02.283Z,7.07
2023-03-04T22:24:30.215Z,7.37
2023-03-04T22:26:59.810Z,6.97
2023-03-04T22:29:29.768Z,6.20
2023-03-04T22:31:57.855Z,6.77
2023-03-04T22:34:25.892Z,5.93
2023-03-04T22:36:53.791Z,7.33
2023-03-04T22:39:22.959Z,6.60
2023-03-04T22:41:50.969Z,6.50
2023-03-04T22:44:19.140Z,6.00
2023-03-04T22:46:48.546Z,6.83
2023-03-04T22:49:16.633Z,5.73
2023-03-04T22:51:45.500Z,6.30
2023-03-04T22:54:15.496Z,7.80
2023-03-04T22:56:43.490Z,5.77
2023-03-04T22:59:11.797Z,7.50
2023-03-04T23:01:39.907Z,6.37
2023-03-04T23:04:09.209Z,5.80
2023-03-04T23:06:37.625Z,5.93
2023-03-04T23:09:05.763Z,6.10
2023-03-04T23:11:36.189Z,6.20
2023-03-04T23:14:06.907Z,6.63
2023-03-04T23:16:37.325Z,5.83
2023-03-04T23:19:05.962Z,6.07
2023-03-04T23:21:36.069Z,6.20
2023-03-04T23:24:05.433Z,5.80
2023-03-04T23:26:35.796Z,5.80
2023-03-04T23:29:06.020Z,5.87
2023-03-04T23:31:35.369Z,6.70
2023-03-04T23:34:04.368Z,6.43
2023-03-04T23:36:36.031Z,6.13
2023-03-04T23:39:05.229Z,5.37
2023-03-04T23:41:34.274Z,5.80
2023-03-04T23:44:02.989Z,6.30
2023-03-04T23:46:31.411Z,6.40
2023-03-04T23:48:59.660Z,6.07
2023-03-04T23:51:30.112Z,6.00
2023-03-04T23:54:00.261Z,5.50
2023-03-04T23:56:30.356Z,6.47
2023-03-04T23:58:59.664Z,6.40
